Aeroporto :
LOGIN :

Iscrizione | Disclaimer

   EN    FR    IT 

 










Sommario :    VFR   VFR Marginale   IFR   IFR Intensivo   IFR Molto Intensivo
Visibilità : 
Base nubi : 
>= 8 km
>= 3000ft
5 / 8 km
1000 / 3000 ft
1500m / 5 km
500 / 1000 ft
800 / 1500m
200 / 500 ft
< 800m
< 200 ft
Simboli :   Temporali  Nebbia  Neve Forte  Precipitazioni Forti  Vento > 20 kt
SIGMETs :   Varie  Temporali  Ghiacco  Turbolenza  Onda orograficha  Ceneri Vulcaniche






- Altitudine del aeroporto : 458 ft


LFSI - St-Dizier

ULTIMO METAR :
  • 191130Z AUTO 20010KT 9999 BKN027 BKN032 BKN038 16/11 Q1006

METARs OBSOLETI :
  • 191100Z AUTO 20009KT 9999 SCT028 SCT054 BKN076 16/11 Q1006
  • 191030Z AUTO 18006KT 160V220 CAVOK 16/11 Q1007
  • 191000Z AUTO 18007KT CAVOK 15/11 Q1007
  • 190930Z AUTO 17006KT 140V200 CAVOK 15/11 Q1007
  • 190900Z AUTO 17007KT CAVOK 14/11 Q1007

TAF TAF LFSI
Valido dal 19 a 09 ore il 20 a 09 ore UTC


190800Z 1909/2009 17007KT CAVOK
TEMPO 1909/1917 -SHRA BKN020 BKN030
BECMG 1917/1919 SHRA BKN015 BKN030
TEMPO 2004/2009 BKN040



MetMap, La meteo Aeronautica in un colpo d'occhio ! - Copyright ORBIFLY Dicembre 2007 - Disclaimer

ORBIFLY MET'MAP TEAM :

Programmazione e sviluppo : Alexandra Zaïnal
Concezione e sviluppo : Baudouin d'Aumeries
Co-Programmazione e sviluppo : Marc-Olivier Méhu
Supporto tecnico e logistico : Manuel Goepfert
Aiuto per la traduzione : Arnaldo La Scala

Contatto : metmap@orbifly.com




FONTI E CREDITI :

   NOAA